Map

Track Data

SID SEASON NUMBER BASIN SUBBASIN NAME ISO_TIME NATURE LAT LON WMO_WIND WMO_PRES WMO_AGENCY TRACK_TYPE DIST2LAND LANDFALL IFLAG USA_AGENCY USA_ATCF_ID USA_LAT USA_LON USA_RECORD USA_STATUS USA_WIND USA_PRES USA_SSHS USA_R34_NE USA_R34_SE USA_R34_SW USA_R34_NW USA_R50_NE USA_R50_SE USA_R50_SW USA_R50_NW USA_R64_NE USA_R64_SE USA_R64_SW USA_R64_NW USA_POCI USA_ROCI USA_RMW USA_EYE TOKYO_LAT TOKYO_LON TOKYO_GRADE TOKYO_WIND TOKYO_PRES TOKYO_R50_DIR TOKYO_R50_LONG TOKYO_R50_SHORT TOKYO_R30_DIR TOKYO_R30_LONG TOKYO_R30_SHORT TOKYO_LAND CMA_LAT CMA_LON CMA_CAT CMA_WIND CMA_PRES HKO_LAT HKO_LON HKO_CAT HKO_WIND HKO_PRES NEWDELHI_LAT NEWDELHI_LON NEWDELHI_GRADE NEWDELHI_WIND NEWDELHI_PRES NEWDELHI_CI NEWDELHI_DP NEWDELHI_POCI REUNION_LAT REUNION_LON REUNION_TYPE REUNION_WIND REUNION_PRES REUNION_TNUM REUNION_CI REUNION_RMW REUNION_R34_NE REUNION_R34_SE REUNION_R34_SW REUNION_R34_NW REUNION_R50_NE REUNION_R50_SE REUNION_R50_SW REUNION_R50_NW REUNION_R64_NE REUNION_R64_SE REUNION_R64_SW REUNION_R64_NW BOM_LAT BOM_LON BOM_TYPE BOM_WIND BOM_PRES BOM_TNUM BOM_CI BOM_RMW BOM_R34_NE BOM_R34_SE BOM_R34_SW BOM_R34_NW BOM_R50_NE BOM_R50_SE BOM_R50_SW BOM_R50_NW BOM_R64_NE BOM_R64_SE BOM_R64_SW BOM_R64_NW BOM_ROCI BOM_POCI BOM_EYE BOM_POS_METHOD BOM_PRES_METHOD NADI_LAT NADI_LON NADI_CAT NADI_WIND NADI_PRES WELLINGTON_LAT WELLINGTON_LON WELLINGTON_WIND WELLINGTON_PRES DS824_LAT DS824_LON DS824_STAGE DS824_WIND DS824_PRES TD9636_LAT TD9636_LON TD9636_STAGE TD9636_WIND TD9636_PRES TD9635_LAT TD9635_LON TD9635_WIND TD9635_PRES TD9635_ROCI NEUMANN_LAT NEUMANN_LON NEUMANN_CLASS NEUMANN_WIND NEUMANN_PRES MLC_LAT MLC_LON MLC_CLASS MLC_WIND MLC_PRES USA_GUST BOM_GUST BOM_GUST_PER REUNION_GUST REUNION_GUST_PER USA_SEAHGT USA_SEARAD_NE USA_SEARAD_SE USA_SEARAD_SW USA_SEARAD_NW STORM_SPEED STORM_DIR
1993221N12216 1993 49 EP CP KEONI 1993-08-09 00:00:00 TS 12.1250 216.000 30 hurdat_epa main 1421 1412 O_____________ hurdat_epa CP011993 12.5000 -144.000 TD 30 -1 2 283
1993221N12216 1993 49 EP CP KEONI 1993-08-09 03:00:00 TS 12.1475 215.899 main 1412 1397 P_____________ CP011993 12.4975 -144.170 TD 30 -1 2 286
1993221N12216 1993 49 EP CP KEONI 1993-08-09 06:00:00 TS 12.1750 215.825 30 hurdat_epa main 1397 1397 O_____________ hurdat_epa CP011993 12.5000 -144.300 TD 30 -1 1 300
1993221N12216 1993 49 EP CP KEONI 1993-08-09 09:00:00 TS 12.2075 215.793 main 1397 1397 P_____________ CP011993 12.5075 -144.365 TD 30 -1 1 309
1993221N12216 1993 49 EP CP KEONI 1993-08-09 12:00:00 TS 12.2250 215.775 30 hurdat_epa main 1397 1388 O_____________ hurdat_epa CP011993 12.5000 -144.400 TD 30 -1 1 264
1993221N12216 1993 49 EP CP KEONI 1993-08-09 15:00:00 TS 12.2019 215.737 main 1388 1388 P_____________ CP011993 12.4500 -144.458 TD 30 -1 1 236
1993221N12216 1993 49 EP CP KEONI 1993-08-09 18:00:00 TS 12.1750 215.700 30 hurdat_epa main 1388 1388 O_____________ hurdat_epa CP011993 12.4000 -144.500 TD 30 -1 1 247
1993221N12216 1993 49 EP CP KEONI 1993-08-09 21:00:00 TS 12.1800 215.682 main 1388 1388 P_____________ CP011993 12.3925 -144.493 TD 30 -1 1 297
1993221N12216 1993 49 EP CP KEONI 1993-08-10 00:00:00 TS 12.2000 215.650 30 hurdat_epa main 1379 1379 O_____________ hurdat_epa CP011993 12.4000 -144.500 TD 30 -1 1 293
1993221N12216 1993 49 EP CP KEONI 1993-08-10 03:00:00 TS 12.2231 215.577 main 1379 1371 P_____________ CP011993 12.4000 -144.577 TD 30 -1 2 286
1993221N12216 1993 49 EP CP KEONI 1993-08-10 06:00:00 TS 12.2500 215.475 30 hurdat_epa main 1364 1355 O_____________ hurdat_epa CP011993 12.4000 -144.700 TD 30 -1 2 283
1993221N12216 1993 49 EP CP KEONI 1993-08-10 09:00:00 TS 12.2769 215.344 main 1347 1338 P_____________ CP011993 12.4000 -144.865 TD 30 -1 2 282
1993221N12216 1993 49 EP CP KEONI 1993-08-10 12:00:00 TS 12.3000 215.225 30 hurdat_epa main 1338 1338 O_____________ hurdat_epa CP011993 12.4000 -145.000 TD 30 -1 2 282
1993221N12216 1993 49 EP CP KEONI 1993-08-10 15:00:00 TS 12.3144 215.164 main 1338 1330 P_____________ CP011993 12.4000 -145.023 TD 30 -1 1 285
1993221N12216 1993 49 EP CP KEONI 1993-08-10 18:00:00 TS 12.3250 215.125 30 hurdat_epa main 1330 1330 O_____________ hurdat_epa CP011993 12.4000 -145.000 TD 30 -1 1 288
1993221N12216 1993 49 EP CP KEONI 1993-08-10 21:00:00 TS 12.3394 215.079 main 1330 1321 P_____________ CP011993 12.4000 -145.000 TD 30 -1 1 285
1993221N12216 1993 49 EP CP KEONI 1993-08-11 00:00:00 TS 12.3500 215.025 30 hurdat_epa main 1314 1314 O_____________ hurdat_epa CP011993 12.4000 -145.000 TD 30 -1 1 276
1993221N12216 1993 49 EP CP KEONI 1993-08-11 03:00:00 TS 12.3519 214.959 main 1314 1306 P_____________ CP011993 12.4000 -145.000 TD 30 -1 1 270
1993221N12216 1993 49 EP CP KEONI 1993-08-11 06:00:00 TS 12.3500 214.875 30 hurdat_epa main 1306 1297 O_____________ hurdat_epa CP011993 12.4000 -145.000 TD 30 -1 2 271
1993221N12216 1993 49 EP CP KEONI 1993-08-11 09:00:00 TS 12.3537 214.791 main 1297 1289 P_____________ CP011993 12.4075 -144.962 TD 30 -1 2 270
1993221N12216 1993 49 EP CP KEONI 1993-08-11 12:00:00 TS 12.3500 214.650 30 hurdat_epa main 1280 1279 O_____________ hurdat_epa CP011993 12.4000 -145.000 TD 30 -1 3 266
1993221N12216 1993 49 EP CP KEONI 1993-08-11 15:00:00 TS 12.3305 214.446 main 1271 1246 P_____________ CP011993 12.3573 -145.160 TD 30 -1 5 264
1993221N12216 1993 49 EP CP KEONI 1993-08-11 18:00:00 TS 12.3000 214.125 30 hurdat_epa main 1246 1214 O_____________ hurdat_epa CP011993 12.3000 -145.500 TD 30 -1 8 265
1993221N12216 1993 49 EP CP KEONI 1993-08-11 21:00:00 TS 12.2662 213.677 main 1214 1182 P_____________ CP011993 12.2501 -146.040 TD 30 -1 10 266
1993221N12216 1993 49 EP CP KEONI 1993-08-12 00:00:00 TS 12.2250 213.125 30 hurdat_epa main 1175 1136 O_____________ hurdat_epa CP011993 12.2000 -146.700 TD 30 -1 11 266
1993221N12216 1993 49 EP CP KEONI 1993-08-12 03:00:00 TS 12.1842 212.550 main 1136 1092 P_____________ CP011993 12.1572 -147.320 TD 30 -1 12 265
1993221N12216 1993 49 EP CP KEONI 1993-08-12 06:00:00 TS 12.1250 211.900 30 hurdat_epa main 1092 1052 O_____________ hurdat_epa CP011993 12.1000 -148.000 TD 30 -1 14 263
1993221N12216 1993 49 EP CP KEONI 1993-08-12 09:00:00 TS 12.0250 211.167 main 1052 1010 P_____________ CP011993 12.0001 -148.793 TD 30 -1 15 262
1993221N12216 1993 49 EP CP KEONI 1993-08-12 12:00:00 TS 11.9250 210.400 30 hurdat_epa main 1010 969 O_____________ hurdat_epa CP011993 11.9000 -149.600 TD 30 -1 15 264
1993221N12216 1993 49 EP CP KEONI 1993-08-12 15:00:00 TS 11.8599 209.660 main 969 940 P_____________ CP011993 11.8348 -150.322 TD 40 0 14 266
1993221N12216 1993 49 EP CP KEONI 1993-08-12 18:00:00 TS 11.8250 208.950 50 hurdat_epa main 935 903 O_____________ hurdat_epa CP011993 11.8000 -151.000 TS 50 0 13 268
1993221N12216 1993 49 EP CP KEONI 1993-08-12 21:00:00 TS 11.8098 208.289 main 903 874 P_____________ CP011993 11.7848 -151.658 TS 52 0 13 270
1993221N12216 1993 49 EP CP KEONI 1993-08-13 00:00:00 TS 11.8250 207.650 55 hurdat_epa main 874 835 O_____________ hurdat_epa CP011993 11.8000 -152.300 TS 55 0 13 273
1993221N12216 1993 49 EP CP KEONI 1993-08-13 03:00:00 TS 11.8675 206.981 main 835 815 P_____________ CP011993 11.8425 -152.972 TS 55 0 13 274
1993221N12216 1993 49 EP CP KEONI 1993-08-13 06:00:00 TS 11.9250 206.350 55 hurdat_epa main 815 788 O_____________ hurdat_epa CP011993 11.9000 -153.600 TS 55 0 12 275
1993221N12216 1993 49 EP CP KEONI 1993-08-13 09:00:00 TS 11.9748 205.806 main 788 779 P_____________ CP011993 11.9498 -154.123 TS 55 0 10 276
1993221N12216 1993 49 EP CP KEONI 1993-08-13 12:00:00 TS 12.0250 205.300 55 hurdat_epa main 779 763 O_____________ hurdat_epa CP011993 12.0000 -154.600 TS 55 0 10 275
1993221N12216 1993 49 EP CP KEONI 1993-08-13 15:00:00 TS 12.0691 204.797 main 763 761 P_____________ CP011993 12.0422 -155.070 TS 57 0 10 276
1993221N12216 1993 49 EP CP KEONI 1993-08-13 18:00:00 TS 12.1250 204.250 60 hurdat_epa main 761 750 O_____________ hurdat_epa CP011993 12.1000 -155.600 TS 60 0 12 276
1993221N12216 1993 49 EP CP KEONI 1993-08-13 21:00:00 TS 12.1937 203.597 main 753 748 P_____________ CP011993 12.1775 -156.270 TS 60 0 13 278
1993221N12216 1993 49 EP CP KEONI 1993-08-14 00:00:00 TS 12.3000 202.900 60 hurdat_epa main 753 747 O_____________ hurdat_epa CP011993 12.3000 -157.000 TS 60 0 14 281
1993221N12216 1993 49 EP CP KEONI 1993-08-14 03:00:00 TS 12.4655 202.221 main 750 750 P_____________ CP011993 12.4924 -157.707 TS 60 0 14 285
1993221N12216 1993 49 EP CP KEONI 1993-08-14 06:00:00 TS 12.6500 201.550 60 hurdat_epa main 755 755 O_____________ hurdat_epa CP011993 12.7000 -158.400 TS 60 0 13 285
1993221N12216 1993 49 EP CP KEONI 1993-08-14 09:00:00 TS 12.8017 200.898 main 773 773 P_____________ CP011993 12.8573 -159.058 TS 60 0 13 283
1993221N12216 1993 49 EP CP KEONI 1993-08-14 12:00:00 TS 12.9500 200.250 60 hurdat_epa main 786 792 O_____________ hurdat_epa CP011993 13.0000 -159.700 TS 60 0 13 284
1993221N12216 1993 49 EP CP KEONI 1993-08-14 15:00:00 TS 13.1122 199.602 main 820 820 P_____________ CP011993 13.1497 -160.335 TS 65 1 13 284
1993221N12216 1993 49 EP CP KEONI 1993-08-14 18:00:00 TS 13.2750 198.925 70 hurdat_epa main 851 851 O_____________ hurdat_epa CP011993 13.3000 -161.000 HU 70 1 14 283
1993221N12216 1993 49 EP CP KEONI 1993-08-14 21:00:00 TS 13.4343 198.188 main 896 895 P_____________ CP011993 13.4574 -161.735 HU 72 1 15 282
1993221N12216 1993 49 EP CP KEONI 1993-08-15 00:00:00 TS 13.5750 197.425 75 hurdat_epa main 943 943 O_____________ hurdat_epa CP011993 13.6000 -162.500 HU 75 1 15 280
1993221N12216 1993 49 EP CP KEONI 1993-08-15 03:00:00 TS 13.6880 196.662 main 994 994 P_____________ CP011993 13.7149 -163.265 HU 77 1 15 278
1993221N12216 1993 49 EP CP KEONI 1993-08-15 06:00:00 TS 13.7750 195.925 80 hurdat_epa main 1023 1023 O_____________ hurdat_epa CP011993 13.8000 -164.000 HU 80 1 14 277
1993221N12216 1993 49 EP CP KEONI 1993-08-15 09:00:00 TS 13.8447 195.253 main 1053 1049 P_____________ CP011993 13.8571 -164.658 HU 85 2 13 276
1993221N12216 1993 49 EP CP KEONI 1993-08-15 12:00:00 TS 13.9000 194.600 90 hurdat_epa main 1082 1082 O_____________ hurdat_epa CP011993 13.9000 -165.300 HU 90 2 13 275
1993221N12216 1993 49 EP CP KEONI 1993-08-15 15:00:00 TS 13.9499 193.914 main 1124 1115 P_____________ CP011993 13.9499 -165.993 HU 90 2 13 274
1993221N12216 1993 49 EP CP KEONI 1993-08-15 18:00:00 TS 14.0000 193.225 90 hurdat_epa main 1161 1161 O_____________ hurdat_epa CP011993 14.0000 -166.700 HU 90 2 13 274
1993221N12216 1993 49 EP CP KEONI 1993-08-15 21:00:00 TS 14.0492 192.544 main 1209 1201 P_____________ CP011993 14.0348 -167.400 HU 92 2 13 275
1993221N12216 1993 49 EP CP KEONI 1993-08-16 00:00:00 TS 14.1250 191.875 95 hurdat_epa main 1244 1244 O_____________ hurdat_epa CP011993 14.1000 -168.100 HU 95 2 13 279
1993221N12216 1993 49 EP CP KEONI 1993-08-16 03:00:00 TS 14.2436 191.214 main 1290 1282 P_____________ CP011993 14.2274 -168.808 HU 100 3 13 282
1993221N12216 1993 49 EP CP KEONI 1993-08-16 06:00:00 TS 14.4000 190.575 105 hurdat_epa main 1322 1322 O_____________ hurdat_epa CP011993 14.4000 -169.500 HU 105 3 13 285
1993221N12216 1993 49 EP CP KEONI 1993-08-16 09:00:00 TS 14.5838 189.932 main 1365 1365 P_____________ CP011993 14.6001 -170.202 HU 110 3 12 288
1993221N12216 1993 49 EP CP KEONI 1993-08-16 12:00:00 TS 14.7750 189.375 115 hurdat_epa main 1394 1394 O_____________ hurdat_epa CP011993 14.8000 -170.800 HU 115 4 10 291
1993221N12216 1993 49 EP CP KEONI 1993-08-16 15:00:00 TS 14.9354 188.975 main 1422 1422 P_____________ CP011993 14.9497 -171.195 HU 115 4 8 295
1993221N12216 1993 49 EP CP KEONI 1993-08-16 18:00:00 TS 15.1000 188.650 115 hurdat_epa main 1445 1445 O_____________ hurdat_epa CP011993 15.1000 -171.500 HU 115 4 7 298
1993221N12216 1993 49 EP CP KEONI 1993-08-16 21:00:00 TS 15.2868 188.296 main 1459 1459 P_____________ CP011993 15.2849 -171.850 HU 115 4 8 301
1993221N12216 1993 49 EP CP KEONI 1993-08-17 00:00:00 TS 15.5000 187.950 115 hurdat_epa main 1484 1478 O_____________ hurdat_epa CP011993 15.5000 -172.200 HU 115 4 8 305
1993221N12216 1993 49 EP CP KEONI 1993-08-17 03:00:00 TS 15.7424 187.612 main 1500 1495 P_____________ CP011993 15.7424 -172.550 HU 115 4 8 308
1993221N12216 1993 49 EP CP KEONI 1993-08-17 06:00:00 TS 16.0000 187.275 115 hurdat_epa main 1512 1512 O_____________ hurdat_epa CP011993 16.0000 -172.900 HU 115 4 8 307
1993221N12216 1993 49 EP CP KEONI 1993-08-17 09:00:00 TS 16.2500 186.919 main 1539 1534 P_____________ CP011993 16.2500 -173.258 HU 107 3 8 307
1993221N12216 1993 49 EP CP KEONI 1993-08-17 12:00:00 TS 16.5000 186.575 100 hurdat_epa main 1553 1553 O_____________ hurdat_epa CP011993 16.5000 -173.600 HU 100 3 8 309
1993221N12216 1993 49 EP CP KEONI 1993-08-17 15:00:00 TS 16.7631 186.258 main 1568 1568 P_____________ CP011993 16.7650 -173.923 HU 97 3 8 311
1993221N12216 1993 49 EP CP KEONI 1993-08-17 18:00:00 TS 17.0000 185.975 95 hurdat_epa main 1588 1588 O_____________ hurdat_epa CP011993 17.0000 -174.200 HU 95 2 7 309
1993221N12216 1993 49 EP CP KEONI 1993-08-17 21:00:00 TS 17.1718 185.732 main 1609 1609 P_____________ CP011993 17.1649 -174.408 HU 92 2 6 306
1993221N12216 1993 49 EP CP KEONI 1993-08-18 00:00:00 TS 17.3250 185.500 90 hurdat_epa main 1625 1621 O_____________ hurdat_epa CP011993 17.3000 -174.600 HU 90 2 6 306
1993221N12216 1993 49 EP CP KEONI 1993-08-18 03:00:00 TS 17.5068 185.249 main 1647 1643 P_____________ CP011993 17.4425 -174.835 HU 87 2 6 307
1993221N12216 1993 49 EP CP KEONI 1993-08-18 06:00:00 TS 17.7000 184.975 85 hurdat_epa main 1659 1659 O_____________ hurdat_epa CP011993 17.6000 -175.100 HU 85 2 7 304
1993221N12216 1993 49 EP CP KEONI 1993-08-18 09:00:00 TS 17.8812 184.670 main 1682 1682 P_____________ CP011993 17.7700 -175.393 HU 82 1 7 304
1993221N12216 1993 49 EP CP KEONI 1993-08-18 12:00:00 TS 18.1000 184.350 80 hurdat_epa main 1715 1712 O_____________ hurdat_epa CP011993 18.0000 -175.700 HU 80 1 8 311
1993221N12216 1993 49 EP CP KEONI 1993-08-18 15:00:00 TS 18.3993 184.051 main 1726 1726 P_____________ CP011993 18.3349 -175.985 HU 77 1 9 316
1993221N12216 1993 49 EP CP KEONI 1993-08-18 18:00:00 TS 18.7250 183.725 75 hurdat_epa main 1758 1755 O_____________ hurdat_epa CP011993 18.7000 -176.300 HU 75 1 9 313
1993221N12216 1993 49 EP CP KEONI 1993-08-18 21:00:00 TS 19.0218 183.344 main 1790 1787 P_____________ CP011993 19.0149 -176.678 HU 72 1 10 307
1993221N12216 1993 49 EP CP KEONI 1993-08-19 00:00:00 TS 19.3000 182.925 70 hurdat_epa main 1823 1823 O_____________ hurdat_epa CP011993 19.3000 -177.100 HU 70 1 10 305
1993221N12216 1993 49 EP CP KEONI 1993-08-19 03:00:00 TS 19.5762 182.495 main 1857 1857 P_____________ CP011993 19.5799 -177.542 HU 70 1 10 301
1993221N12216 1993 49 EP CP KEONI 1993-08-19 06:00:00 TS 19.8000 182.050 70 hurdat_epa main 1894 1905 O_____________ hurdat_epa CP011993 19.8000 -178.000 HU 70 1 9 294
1993221N12216 1993 49 EP CP KEONI 1993-08-19 09:00:00 TS 19.9423 181.617 main 1944 1942 P_____________ CP011993 19.9298 -178.435 HU 67 1 9 285
1993221N12216 1993 49 EP CP KEONI 1993-08-19 12:00:00 TS 20.0353 181.124 65 hurdat_epa main 1993 1993 OOO___________ hurdat_epa CP011993 20.0000 -178.900 HU 65 1 20.1000 180.900 7 60 980 9 50 50 9 160 160 0 20.1000 180.900 3 58 980 10 279
1993221N12216 1993 49 EP CP KEONI 1993-08-19 15:00:00 TS 20.0910 180.571 main 2043 2043 PPP___________ CP011993 20.0276 -179.450 HU 65 1 20.1853 -179.562 7 60 977 9 55 55 9 170 170 20.1855 -179.592 3 58 977 10 278
1993221N12216 1993 49 EP CP KEONI 1993-08-19 18:00:00 TS 20.1842 180.042 60 975 tokyo main 2103 2103 OOO___________ hurdat_epa CP011993 20.1000 -180.000 HU 65 1 20.3000 180.000 4 60 975 9 60 60 9 180 180 0 20.3000 180.000 3 58 975 10 288
1993221N12216 1993 49 WP MM KEONI 1993-08-19 21:00:00 TS 20.3852 179.608 main 2141 2141 PPP___________ CP011993 20.3122 179.542 HU 70 1 20.4698 179.600 4 62 972 9 70 70 9 190 190 20.4696 179.715 3 63 972 9 300
1993221N12216 1993 49 WP MM KEONI 1993-08-20 00:00:00 TS 20.6429 179.190 65 970 tokyo main 2179 2177 OOOO__________ hurdat_epa CP011993 20.6000 179.100 HU 75 1 20.7000 179.200 5 65 970 9 80 80 9 200 200 0 20.7000 179.400 4 68 970 20.7000 179.400 T 70 970 10 303
1993221N12216 1993 49 WP MM KEONI 1993-08-20 03:00:00 TS 20.9305 178.701 main 2226 2226 PPPP__________ CP011993 20.8850 178.600 HU 77 1 20.9849 178.765 5 70 965 9 85 85 9 210 210 20.9852 178.880 4 72 967 21.0004 178.848 T 72 965 11 303
1993221N12216 1993 49 WP MM KEONI 1993-08-20 06:00:00 TS 21.2478 178.196 75 960 tokyo main 2273 2272 OOOO__________ hurdat_epa CP011993 21.2000 178.100 HU 80 1 21.3000 178.300 5 75 960 9 90 90 9 220 220 0 21.3000 178.300 4 77 965 21.3000 178.300 T 75 960 11 306
1993221N12216 1993 49 WP MM KEONI 1993-08-20 09:00:00 TS 21.5759 177.733 main 2320 2320 PPPP__________ CP011993 21.5571 177.665 HU 82 1 21.5922 177.830 5 75 957 9 95 95 9 230 230 21.5921 177.815 4 77 962 21.5997 177.757 T 75 960 11 306
1993221N12216 1993 49 WP MM KEONI 1993-08-20 12:00:00 TS 21.9000 177.233 75 955 tokyo main 2369 2369 OOOO__________ hurdat_epa CP011993 21.9000 177.200 HU 85 2 21.9000 177.300 5 75 955 9 100 100 9 240 240 0 21.9000 177.300 4 77 960 21.9000 177.200 T 75 960 12 301
1993221N12216 1993 49 WP MM KEONI 1993-08-20 15:00:00 TS 22.1942 176.630 main 2428 2428 PPPP__________ CP011993 22.1500 176.622 HU 87 2 22.2577 176.658 5 77 952 9 100 100 9 250 250 22.2577 176.658 4 77 960 22.1999 176.600 T 75 960 13 297
1993221N12216 1993 49 WP MM KEONI 1993-08-20 18:00:00 TS 22.4833 176.000 80 950 tokyo main 2487 2487 OOOO__________ hurdat_epa CP011993 22.4000 176.000 HU 90 2 22.6000 176.000 5 80 950 9 100 100 9 260 260 0 22.6000 176.000 4 77 960 22.5000 176.000 T 75 960 13 298
1993221N12216 1993 49 WP MM KEONI 1993-08-20 21:00:00 TS 22.7865 175.412 main 2547 2547 PPPP__________ CP011993 22.7349 175.392 HU 92 2 22.8572 175.427 5 80 950 9 100 100 9 260 260 22.8572 175.427 4 77 960 22.7997 175.442 T 77 957 12 300
1993221N12216 1993 49 WP MM KEONI 1993-08-21 00:00:00 TS 23.1000 174.850 80 950 tokyo main 2596 2596 OOOO__________ hurdat_epa CP011993 23.1000 174.800 HU 95 2 23.1000 174.900 5 80 950 9 100 100 9 260 260 0 23.1000 174.900 4 77 960 23.1000 174.900 T 80 955 12 302
1993221N12216 1993 49 WP MM KEONI 1993-08-21 03:00:00 TS 23.4110 174.308 main 2656 2656 PPPP__________ CP011993 23.4424 174.227 HU 97 3 23.3771 174.407 5 82 947 9 100 100 9 270 270 23.3771 174.407 4 82 955 23.3848 174.350 T 85 947 12 304
1993221N12216 1993 49 WP MM KEONI 1993-08-21 06:00:00 TS 23.7500 173.783 85 945 tokyo main 2706 2706 OOOO__________ hurdat_epa CP011993 23.8000 173.700 HU 100 3 23.7000 173.900 5 85 945 9 100 100 9 280 280 0 23.7000 173.900 5 87 950 23.7000 173.800 ST 90 940 12 307
1993221N12216 1993 49 WP MM KEONI 1993-08-21 09:00:00 TS 24.1424 173.254 main 2756 2756 PPPP__________ CP011993 24.1997 173.235 HU 100 3 24.0852 173.293 5 87 942 9 105 105 9 290 290 24.0852 173.293 5 87 950 24.0850 173.235 ST 90 940 12 310
1993221N12216 1993 49 WP MM KEONI 1993-08-21 12:00:00 TS 24.5500 172.750 90 940 tokyo main 2807 2807 OOOO__________ hurdat_epa CP011993 24.6000 172.800 HU 100 3 24.5000 172.700 5 90 940 9 110 110 9 300 300 0 24.5000 172.700 5 87 950 24.5000 172.700 ST 90 940 12 311
1993221N12216 1993 49 WP MM KEONI 1993-08-21 15:00:00 TS 24.9286 172.276 main 2858 2858 PPPP__________ CP011993 24.9574 172.342 HU 100 3 24.8998 172.205 5 90 940 9 110 110 9 300 300 24.8998 172.205 5 87 950 24.8998 172.220 ST 85 947 11 313
1993221N12216 1993 49 WP MM KEONI 1993-08-21 18:00:00 TS 25.3000 171.850 90 940 tokyo main 2909 2909 OOOO__________ hurdat_epa CP011993 25.3000 171.900 HU 100 3 25.3000 171.800 5 90 940 9 110 110 9 300 300 0 25.3000 171.800 5 87 950 25.3000 171.800 T 80 955 10 316
1993221N12216 1993 49 WP MM KEONI 1993-08-21 21:00:00 TS 25.6786 171.471 main 2938 2894 PPPP__________ CP011993 25.6499 171.485 HU 97 3 25.7073 171.477 5 90 940 9 110 110 9 300 300 25.7073 171.477 5 87 950 25.7074 171.420 T 80 955 10 319
1993221N12216 1993 49 WP MM KEONI 1993-08-22 00:00:00 TS 26.0500 171.133 90 940 tokyo main 2879 2834 OOOO__________ hurdat_epa CP011993 26.0000 171.100 HU 95 2 26.1000 171.200 5 90 940 9 110 110 9 300 300 0 26.1000 171.200 5 87 950 26.1000 171.100 T 80 955 10 321
1993221N12216 1993 49 WP MM KEONI 1993-08-22 03:00:00 TS 26.4124 170.803 main 2834 2790 PPPP__________ CP011993 26.3575 170.727 HU 92 2 26.4725 170.892 5 87 942 9 105 105 9 300 300 26.4724 170.900 5 82 955 26.4573 170.842 T 75 960 9 321
1993221N12216 1993 49 WP MM KEONI 1993-08-22 06:00:00 TS 26.7500 170.500 85 945 tokyo main 2781 2751 OOOO__________ hurdat_epa CP011993 26.7000 170.400 HU 90 2 26.8000 170.600 5 85 945 9 100 100 9 300 300 0 26.8000 170.600 4 77 960 26.8000 170.600 T 70 965 8 322
1993221N12216 1993 49 WP MM KEONI 1993-08-22 09:00:00 TS 27.0490 170.237 main 2745 2707 PPPP__________ CP011993 26.9998 170.150 HU 87 2 27.0648 170.357 5 82 947 9 95 95 9 285 285 27.0649 170.300 4 77 960 27.1649 170.315 T 65 970 8 321
1993221N12216 1993 49 WP MM KEONI 1993-08-22 12:00:00 TS 27.3333 169.967 80 950 tokyo main 2707 2662 OOOO__________ hurdat_epa CP011993 27.3000 169.900 HU 85 2 27.3000 170.100 5 80 950 9 90 90 9 270 270 0 27.3000 170.000 4 77 960 27.5000 170.000 STS 60 975 8 319
1993221N12216 1993 49 WP MM KEONI 1993-08-22 15:00:00 TS 27.6519 169.653 main 2653 2612 PPPP__________ CP011993 27.6723 169.588 HU 82 1 27.5575 169.772 5 77 955 9 80 80 9 260 260 27.5573 169.715 4 77 962 27.7799 169.665 STS 60 975 9 315
1993221N12216 1993 49 WP MM KEONI 1993-08-22 18:00:00 TS 27.9333 169.283 75 960 tokyo main 2612 2572 OOOO__________ hurdat_epa CP011993 28.0000 169.200 HU 80 1 27.8000 169.400 5 75 960 9 70 70 9 250 250 0 27.8000 169.400 4 77 965 28.0000 169.300 STS 60 975 8 304
1993221N12216 1993 49 WP MM KEONI 1993-08-22 21:00:00 TS 28.1236 168.863 main 2572 2526 PPPP__________ CP011993 28.1874 168.730 HU 77 1 28.0072 169.030 5 72 965 9 65 65 9 235 235 28.0073 169.037 4 72 967 28.1648 168.922 STS 60 975 9 293
1993221N12216 1993 49 WP MM KEONI 1993-08-23 00:00:00 TS 28.2667 168.383 70 970 tokyo main 2526 2490 OOOO__________ hurdat_epa CP011993 28.3000 168.200 HU 75 1 28.2000 168.600 5 70 970 9 60 60 9 220 220 0 28.2000 168.600 4 68 970 28.3000 168.500 STS 60 975 9 289
1993221N12216 1993 49 WP MM KEONI 1993-08-23 03:00:00 TS 28.4181 167.868 main 2490 2448 PPPP__________ CP011993 28.4073 167.665 HU 72 1 28.4148 168.088 5 67 972 9 60 60 9 210 210 28.4148 168.088 4 68 970 28.4572 168.037 STS 60 975 10 287
1993221N12216 1993 49 WP MM KEONI 1993-08-23 06:00:00 TS 28.5500 167.300 65 975 tokyo main 2439 2397 OOOO__________ hurdat_epa CP011993 28.5000 167.100 HU 70 1 28.6000 167.500 5 65 975 9 60 60 9 200 200 0 28.6000 167.500 4 68 970 28.6000 167.500 STS 60 975 11 283
1993221N12216 1993 49 WP MM KEONI 1993-08-23 09:00:00 TS 28.6585 166.696 main 2397 2365 PPPP__________ CP011993 28.5997 166.515 HU 67 1 28.7148 166.872 5 62 975 9 60 60 9 200 200 28.7148 166.872 4 63 972 28.7223 166.888 STS 60 975 11 280
1993221N12216 1993 49 WP MM KEONI 1993-08-23 12:00:00 TS 28.7500 166.050 60 975 tokyo main 2356 2319 OOOO__________ hurdat_epa CP011993 28.7000 165.900 HU 65 1 28.8000 166.200 4 60 975 9 60 60 9 200 200 0 28.8000 166.200 3 58 975 28.8000 166.200 STS 60 975 12 277
1993221N12216 1993 49 WP MM KEONI 1993-08-23 15:00:00 TS 28.8083 165.361 main 2319 2274 PPPP__________ CP011993 28.7700 165.242 HU 65 1 28.8850 165.492 4 57 977 9 55 55 9 200 200 28.8849 165.500 3 58 975 28.7701 165.449 STS 60 975 12 278
1993221N12216 1993 49 WP MM KEONI 1993-08-23 18:00:00 TS 28.9167 164.683 55 980 tokyo main 2274 2225 OOOO__________ hurdat_epa CP011993 28.9000 164.600 HU 65 1 29.0000 164.800 4 55 980 9 50 50 9 200 200 0 29.0000 164.800 3 58 975 28.8000 164.700 STS 60 975 12 286
1993221N12216 1993 49 WP MM KEONI 1993-08-23 21:00:00 TS 29.1431 164.064 main 2225 2167 PPPP__________ CP011993 29.1622 164.028 HU 65 1 29.1621 164.177 4 55 980 9 50 50 9 200 200 29.1624 164.120 3 58 977 29.0473 164.006 STS 60 975 12 297
1993221N12216 1993 49 WP MM KEONI 1993-08-24 00:00:00 TS 29.4500 163.500 55 980 tokyo main 2158 2105 OOOO__________ hurdat_epa CP011993 29.5000 163.500 HU 65 1 29.4000 163.600 4 55 980 9 50 50 9 200 200 0 29.4000 163.500 3 58 980 29.4000 163.400 STS 60 975 12 304
1993221N12216 1993 49 WP MM KEONI 1993-08-24 03:00:00 TS 29.7886 162.961 main 2105 2052 PPPP__________ CP011993 29.8499 162.970 HU 65 1 29.7201 163.005 4 57 977 9 55 55 9 205 205 29.7198 162.948 3 58 980 29.7421 162.905 STS 62 972 11 309
1993221N12216 1993 49 WP MM KEONI 1993-08-24 06:00:00 TS 30.1500 162.500 60 975 tokyo main 2042 1999 OOOO__________ hurdat_epa CP011993 30.2000 162.500 HU 65 1 30.1000 162.500 4 60 975 9 60 60 9 210 210 0 30.1000 162.500 3 58 980 30.1000 162.500 T 65 970 10 315
1993221N12216 1993 49 WP MM KEONI 1993-08-24 09:00:00 TS 30.4901 162.142 main 1994 1956 PPPP__________ CP011993 30.4997 162.127 HU 70 1 30.4995 162.169 4 62 972 9 65 65 9 225 225 30.4996 162.177 3 58 977 30.4423 162.127 T 65 970 9 320
1993221N12216 1993 49 WP MM KEONI 1993-08-24 12:00:00 TS 30.8333 161.833 65 970 tokyo main 1951 1898 OOOO__________ hurdat_epa CP011993 30.8000 161.800 HU 75 1 30.9000 161.900 5 65 970 9 70 70 9 240 240 0 30.9000 161.900 3 58 975 30.8000 161.800 T 65 970 9 322
1993221N12216 1993 49 WP MM KEONI 1993-08-24 15:00:00 TS 31.2091 161.494 main 1898 1855 PPPP__________ CP011993 31.1649 161.450 HU 80 1 31.2725 161.557 5 67 967 9 75 75 9 245 245 31.2725 161.557 3 63 972 31.2148 161.500 T 67 967 9 321
1993221N12216 1993 49 WP MM KEONI 1993-08-24 18:00:00 TS 31.5500 161.150 70 965 tokyo main 1845 1807 OOOO__________ hurdat_epa CP011993 31.5000 161.100 HU 85 2 31.6000 161.200 5 70 965 9 80 80 9 250 250 0 31.6000 161.200 4 68 970 31.6000 161.200 T 70 965 9 315
1993221N12216 1993 49 WP MM KEONI 1993-08-24 21:00:00 TS 31.8100 160.790 main 1807 1774 PPPP__________ CP011993 31.7300 160.735 HU 85 2 31.8875 160.842 5 70 962 9 80 80 9 250 250 31.8875 160.842 4 68 970 31.8950 160.850 T 65 970 7 307
1993221N12216 1993 49 WP MM KEONI 1993-08-25 00:00:00 TS 32.0000 160.450 70 960 tokyo main 1774 1751 OOOO__________ hurdat_epa CP011993 31.9000 160.400 HU 85 2 32.1000 160.500 5 70 960 9 80 80 9 250 250 0 32.1000 160.500 4 68 970 32.1000 160.500 STS 60 975 6 302
1993221N12216 1993 49 WP MM KEONI 1993-08-25 03:00:00 TS 32.1524 160.149 main 1737 1728 PPPP__________ CP011993 32.0724 160.127 HU 85 2 32.2300 160.170 5 70 962 9 80 80 9 245 245 32.2300 160.170 4 68 970 32.2375 160.170 STS 60 975 5 298
1993221N12216 1993 49 WP MM KEONI 1993-08-25 06:00:00 TS 32.2500 159.900 70 965 tokyo main 1718 1710 OOOO__________ hurdat_epa CP011993 32.2000 159.900 HU 85 2 32.3000 159.900 5 70 965 9 80 80 9 240 240 0 32.3000 159.900 4 68 970 32.3000 159.900 STS 60 975 4 292
1993221N12216 1993 49 WP MM KEONI 1993-08-25 09:00:00 TS 32.3028 159.704 main 1710 1705 PPPP__________ CP011993 32.2650 159.685 HU 82 1 32.3574 159.720 5 70 965 9 80 80 9 240 240 32.3574 159.720 4 68 970 32.3074 159.727 STS 60 975 3 286
1993221N12216 1993 49 WP MM KEONI 1993-08-25 12:00:00 TS 32.3333 159.550 70 965 tokyo main 1705 1687 OOOO__________ hurdat_epa CP011993 32.3000 159.500 HU 80 1 32.4000 159.600 5 70 965 9 80 80 9 240 240 0 32.4000 159.600 4 68 970 32.3000 159.600 STS 60 975 3 284
1993221N12216 1993 49 WP MM KEONI 1993-08-25 15:00:00 TS 32.3683 159.403 main 1687 1683 PPPP__________ CP011993 32.3275 159.327 HU 77 1 32.4425 159.492 5 67 967 9 75 75 9 230 230 32.4500 159.492 4 63 972 32.3350 159.450 STS 57 977 2 294
1993221N12216 1993 49 WP MM KEONI 1993-08-25 18:00:00 TS 32.4333 159.283 65 970 tokyo main 1683 1669 OOOO__________ hurdat_epa CP011993 32.4000 159.200 HU 75 1 32.5000 159.400 5 65 970 9 70 70 9 220 220 0 32.5000 159.400 3 58 975 32.4000 159.300 STS 55 980 2 313
1993221N12216 1993 49 WP MM KEONI 1993-08-25 21:00:00 TS 32.5325 159.192 main 1669 1645 PPPP__________ CP011993 32.5400 159.128 HU 72 1 32.5775 159.307 5 62 972 9 60 60 9 210 210 32.5199 159.322 3 58 975 32.4775 159.142 STS 50 985 3 334
1993221N12216 1993 49 WP MM KEONI 1993-08-26 00:00:00 TS 32.7167 159.117 60 975 tokyo main 1645 1611 OOOO__________ hurdat_epa CP011993 32.8000 159.100 HU 70 1 32.7000 159.200 4 60 975 9 50 50 9 200 200 0 32.6000 159.200 3 58 975 32.6000 159.000 TS 45 990 5 344
1993221N12216 1993 49 WP MM KEONI 1993-08-26 03:00:00 TS 33.0138 159.031 main 1611 1571 PPPP__________ CP011993 33.2200 159.092 HU 65 1 32.8625 159.065 4 57 977 9 45 45 9 190 190 32.8052 158.950 3 58 977 32.7550 158.892 TS 45 990 7 348
1993221N12216 1993 49 WP MM KEONI 1993-08-26 06:00:00 TS 33.3833 158.950 55 980 tokyo main 1571 1537 OOOO__________ hurdat_epa CP011993 33.7000 159.100 TS 60 0 33.1000 158.900 4 55 980 9 40 40 9 180 180 0 33.1000 158.700 3 58 980 33.0000 158.800 TS 45 990 8 351
1993221N12216 1993 49 WP MM KEONI 1993-08-26 09:00:00 TS 33.7641 158.888 main 1527 1493 PPPP__________ CP011993 34.1225 159.122 TS 55 0 33.4201 158.685 4 52 982 9 9 180 180 33.4274 158.570 3 53 982 33.3700 158.707 TS 42 992 8 352
1993221N12216 1993 49 WP MM KEONI 1993-08-26 12:00:00 TS 34.1500 158.817 50 985 tokyo main 1483 1450 OOOO__________ hurdat_epa CP011993 34.5000 159.100 TS 50 0 33.8000 158.500 4 50 985 0 9 180 180 0 33.8000 158.500 3 48 985 33.8000 158.600 TS 40 995 8 349
1993221N12216 1993 49 WP MM KEONI 1993-08-26 15:00:00 TS 34.5062 158.708 main 1450 1416 PPPP__________ CP011993 34.8225 158.988 TS 50 0 34.1849 158.412 4 47 987 0 9 165 165 34.1850 158.428 3 48 985 34.2000 158.443 TS 40 995 7 345
1993221N12216 1993 49 WP MM KEONI 1993-08-26 18:00:00 TS 34.8500 158.583 45 990 tokyo main 1406 1373 OOOO__________ hurdat_epa CP011993 35.1000 158.800 TS 50 0 34.6000 158.400 3 45 990 0 9 150 150 0 34.6000 158.400 3 48 985 34.6000 158.300 TS 40 995 7 343
1993221N12216 1993 49 WP MM KEONI 1993-08-26 21:00:00 TS 35.1993 158.447 main 1368 1339 PPPP__________ CP011993 35.3502 158.528 TS 47 0 35.0725 158.435 3 45 991 0 9 135 135 35.0650 158.435 3 48 985 35.0075 158.227 TS 40 995 7 345
1993221N12216 1993 49 WP MM KEONI 1993-08-27 00:00:00 TS 35.5333 158.350 45 992 tokyo main 1335 1306 OOOO__________ hurdat_epa CP011993 35.6000 158.300 TS 45 0 35.5000 158.500 3 45 992 0 9 120 120 0 35.5000 158.500 3 48 985 35.4000 158.200 TS 40 995 7 351
1993221N12216 1993 49 WP MM KEONI 1993-08-27 03:00:00 TS 35.8407 158.327 main 1306 1282 PPPP__________ CP011993 35.8924 158.232 TS 42 0 35.7725 158.543 3 42 993 0 9 110 110 35.8225 158.550 3 43 987 35.7725 158.170 TS 40 995 6 1
1993221N12216 1993 49 WP MM KEONI 1993-08-27 06:00:00 TS 36.1333 158.383 40 994 tokyo main 1282 1259 OOOO__________ hurdat_epa CP011993 36.2000 158.300 TS 40 0 36.0000 158.600 3 40 994 0 9 100 100 0 36.1000 158.600 2 38 990 36.1000 158.200 TS 40 995 6 12
1993221N12216 1993 49 WP MM KEONI 1993-08-27 09:00:00 TS 36.4499 158.491 main 1259 1236 PPPP__________ CP011993 36.5374 158.447 TS 37 0 36.3000 158.678 3 40 994 0 9 100 100 36.4149 158.620 2 38 990 36.3724 158.305 TS 40 995 6 22
1993221N12216 1993 49 WP MM KEONI 1993-08-27 12:00:00 TS 36.7167 158.683 40 994 tokyo main 1241 1231 OOOO__________ hurdat_epa CP011993 36.8000 158.700 TS 35 0 36.6000 158.800 3 40 994 0 9 100 100 0 36.7000 158.700 2 38 990 36.6000 158.500 TS 40 995 6 39
1993221N12216 1993 49 WP MM KEONI 1993-08-27 15:00:00 TS 36.8823 158.935 main 1232 1232 PPPP__________ CP011993 36.8873 159.005 TS 35 0 36.8797 158.948 3 40 995 0 9 100 100 36.9298 158.890 2 38 990 36.8224 158.755 TS 40 995 5 61
1993221N12216 1993 49 WP MM KEONI 1993-08-27 18:00:00 TS 36.9833 159.283 40 996 tokyo main 1244 1244 OOOO__________ hurdat_epa CP011993 36.9000 159.400 TS 35 0 37.1000 159.200 3 40 996 0 9 100 100 0 37.1000 159.200 2 38 990 37.0000 159.100 TS 40 995 6 72
1993221N12216 1993 49 WP MM KEONI 1993-08-27 21:00:00 TS 37.0868 159.704 main 1257 1257 PPPP__________ CP011993 36.9573 159.862 TS 32 -1 37.2596 159.574 3 40 997 0 9 100 100 37.2521 159.582 2 38 992 37.1369 159.482 TS 40 995 8 79
1993221N12216 1993 49 WP MM KEONI 1993-08-28 00:00:00 TS 37.1304 160.243 40 998 tokyo main 1284 1284 OOOO__________ hurdat_epa CP011993 37.0000 160.400 TD 30 -1 37.3000 160.100 3 40 998 0 9 100 100 0 37.3000 160.100 2 38 995 37.2000 160.000 TS 40 995 9 88
1993221N12216 1993 49 WP MM KEONI 1993-08-28 03:00:00 TS 37.1144 160.889 main 1321 1321 PPPP__________ CP011993 37.0449 160.984 TD 32 -1 37.2031 160.793 3 1000 0 9 37.2031 160.793 2 33 997 37.1765 160.698 TS 35 997 11 97
1993221N12216 1993 49 WP MM KEONI 1993-08-28 06:00:00 TS 37.0048 161.557 1002 tokyo main 1369 1369 OOOO__________ hurdat_epa CP011993 37.0000 161.600 TS 35 0 37.0000 161.500 2 1002 0 0 0 37.0000 161.500 1 29 1000 37.1000 161.500 TD 30 1000 10 109
1993221N12216 1993 49 WP MM KEONI 1993-08-28 09:00:00 TS 36.7780 162.131 main 1414 1414 PPP___________ CP011993 36.7797 162.201 TS 30 -1 36.7644 162.030 2 1002 0 0 36.7868 162.022 1 29 1000 TD 10 119
1993221N12216 1993 49 WP MM KEONI 1993-08-28 12:00:00 TS 36.5000 162.680 1002 tokyo main 1474 1474 OOO___________ hurdat_epa CP011993 36.5000 162.800 TD 25 -1 36.5000 162.500 2 1002 0 0 0 36.5000 162.500 1 29 1000 10 120
1993221N12216 1993 49 WP MM KEONI 1993-08-28 15:00:00 TS 36.2648 163.254 main 1526 1526 PPP___________ CP011993 36.3076 163.429 TD 25 -1 36.2867 162.961 2 1003 0 0 36.1145 163.020 1 26 1002 10 119
1993221N12216 1993 49 WP MM KEONI 1993-08-28 18:00:00 TS 36.0000 163.820 1004 tokyo main 1581 1581 OOO___________ hurdat_epa CP011993 36.1000 164.000 TD 25 -1 36.0000 163.500 2 1004 0 0 0 35.7000 163.600 1 23 1005 11 124
1993221N12216 1993 49 WP MM KEONI 1993-08-28 21:00:00 TS 35.6545 164.374 main 1641 1641 PPP___________ CP011993 35.8146 164.437 TD 25 -1 35.5008 164.252 2 1005 0 0 35.3279 164.308 1 23 1005 11 129
1993221N12216 1993 49 WP MM KEONI 1993-08-29 00:00:00 TS 35.3000 164.880 1006 tokyo main 1705 1705 OOO___________ hurdat_epa CP011993 35.5000 164.800 TD 25 -1 35.0000 165.000 2 1006 0 0 0 35.0000 165.000 1 23 1005 10 130
1993221N12216 1993 49 WP MM KEONI 1993-08-29 03:00:00 TS 35.0108 165.328 main 1754 1754 PPP___________ CP011993 35.1925 165.172 TD 25 -1 34.7121 165.574 2 1007 0 0 34.7646 165.551 1 21 1007 9 130
1993221N12216 1993 49 WP MM KEONI 1993-08-29 06:00:00 TS 34.7222 165.722 1008 tokyo main 1803 1803 OOO___________ hurdat_epa CP011993 34.9000 165.500 TD 25 -1 34.5000 166.000 2 1008 0 0 0 34.5000 166.000 0 19 1010 8 135
1993221N12216 1993 49 WP MM KEONI 1993-08-29 09:00:00 TS 34.4180 166.059 main 1852 1852 PPP___________ CP011993 34.6649 165.780 TD 25 -1 34.2871 166.287 2 1009 0 0 34.0799 166.403 0 19 1010 8 142
1993221N12216 1993 49 WP MM KEONI 1993-08-29 12:00:00 TS 34.0571 166.343 1010 tokyo main 1889 1889 OOO___________ hurdat_epa CP011993 34.4000 166.000 TD 25 -1 34.0000 166.500 2 1010 0 0 0 33.6000 166.700 0 19 1010 10 150
1993221N12216 1993 49 WP MM KEONI 1993-08-29 15:00:00 TS 33.5925 166.626 main 1950 1950 PPP___________ CP011993 34.0300 166.188 TD 22 -1 33.5751 166.788 2 1011 0 0 33.1724 166.902 0 19 1010 10 160
1993221N12216 1993 49 WP MM KEONI 1993-08-29 18:00:00 TS 33.1000 166.767 1012 tokyo main 2004 2004 OOO___________ jtwc_cp CP011993 33.6000 166.300 20 33.0000 167.000 2 1012 0 0 0 32.7000 167.000 0 19 1010 11 173
1993221N12216 1993 49 WP MM KEONI 1993-08-29 21:00:00 TS 32.5075 166.799 main 2057 2057 PPP___________ CP011993 33.1649 166.337 20 32.2499 167.037 2 1012 0 0 32.1075 167.022 0 19 1010 12 180
1993221N12216 1993 49 WP MM KEONI 1993-08-30 00:00:00 TS 31.9364 166.745 1012 tokyo main 2104 2104 OOO___________ jtwc_cp CP011993 32.7000 166.300 20 31.5000 167.000 2 1012 0 0 0 31.5000 167.000 0 19 1010 10 186
1993221N12216 1993 49 WP MM KEONI 1993-08-30 03:00:00 TS 31.4685 166.688 main 2140 2140 PPP___________ CP011993 32.2225 166.223 20 30.9625 167.000 2 1012 0 0 30.9725 166.993 0 19 1010 9 188
1993221N12216 1993 49 WP MM KEONI 1993-08-30 06:00:00 TS 31.0333 166.600 1012 tokyo main 2179 2179 OOO___________ jtwc_cp CP011993 31.7000 166.100 20 30.5000 167.000 2 1012 0 0 0 30.5000 167.000 0 19 1010 9 189
1993221N12216 1993 49 WP MM KEONI 1993-08-30 09:00:00 TS 30.5574 166.513 main 2210 2210 PP____________ CP011993 31.1148 165.988 20 29.9999 167.038 2 1011 0 0 0 11 189
1993221N12216 1993 49 WP MM KEONI 1993-08-30 12:00:00 TS 30.0000 166.400 1010 tokyo main 2260 2260 OO____________ jtwc_cp CP011993 30.5000 165.800 20 29.5000 167.000 2 1010 0 0 0 12 196
1993221N12216 1993 49 WP MM KEONI 1993-08-30 15:00:00 TS 29.4238 166.145 main 2300 2300 PP____________ CP011993 29.8852 165.464 20 28.9623 166.825 2 1010 0 0 12 205
1993221N12216 1993 49 WP MM KEONI 1993-08-30 18:00:00 TS 28.9000 165.800 1010 tokyo main 2331 2331 OO____________ jtwc_cp CP011993 29.3000 165.100 20 28.5000 166.500 2 1010 0 0 0 11 212
1993221N12216 1993 49 WP MM KEONI 1993-08-30 21:00:00 TS 28.4612 165.448 main 2348 2348 PP____________ CP011993 28.7472 164.858 20 28.1752 166.037 2 1009 0 0 10 221
1993221N12216 1993 49 WP MM KEONI 1993-08-31 00:00:00 TS 28.1500 165.050 1008 tokyo main 2361 2356 OO____________ jtwc_cp CP011993 28.3000 164.600 20 28.0000 165.500 2 1008 0 0 0 9 237
1993221N12216 1993 49 WP MM KEONI 1993-08-31 03:00:00 TS 27.9762 164.612 main 2356 2347 PP____________ CP011993 27.9901 164.223 20 27.9623 165.001 2 1008 0 0 8 253
1993221N12216 1993 49 WP MM KEONI 1993-08-31 06:00:00 TS 27.9000 164.150 1008 tokyo main 2347 2318 OO____________ jtwc_cp CP011993 27.8000 163.800 20 28.0000 164.500 2 1008 0 0 0 8 260
1993221N12216 1993 49 WP MM KEONI 1993-08-31 09:00:00 TS 27.8276 163.674 main 2318 2283 PP____________ CP011993 27.6550 163.385 20 28.0002 163.963 2 1008 0 0 8 263
1993221N12216 1993 49 WP MM KEONI 1993-08-31 12:00:00 TS 27.8000 163.250 1008 tokyo main 2283 2257 OO____________ jtwc_cp CP011993 27.6000 163.000 20 28.0000 163.500 2 1008 0 0 0 6 267
1993221N12216 1993 49 WP MM KEONI 1993-08-31 15:00:00 TS 27.7948 162.941 main 2249 2232 PP____________ CP011993 27.5899 162.670 20 27.9997 163.213 2 1008 0 0 5 276
1993221N12216 1993 49 WP MM KEONI 1993-08-31 18:00:00 TS 27.8500 162.700 1008 tokyo main 2226 2204 OO____________ jtwc_cp CP011993 27.7000 162.400 20 28.0000 163.000 2 1008 0 0 0 5 294
1993221N12216 1993 49 WP MM KEONI 1993-08-31 21:00:00 TS 27.9925 162.445 main 2195 2181 PP____________ CP011993 27.9850 162.140 17 28.0000 162.750 2 1008 0 0 5 307
1993221N12216 1993 49 WP MM KEONI 1993-09-01 00:00:00 TS 28.1500 162.250 1008 tokyo main 2176 2159 OO____________ jtwc_cp CP011993 28.3000 162.000 15 28.0000 162.500 2 1008 0 0 0 3 308
1993221N12216 1993 49 WP MM KEONI 1993-09-01 03:00:00 TS 28.2063 162.134 main 2159 2153 PP____________ CP011993 28.4875 162.055 15 27.9251 162.212 2 1008 0 0 2 319
1993221N12216 1993 49 WP MM KEONI 1993-09-01 06:00:00 TS 28.3000 162.100 1008 tokyo main 2153 2138 OO____________ jtwc_cp CP011993 28.6000 162.200 15 28.0000 162.000 2 1008 0 0 0 4 0
1993221N12216 1993 49 WP MM KEONI 1993-09-01 09:00:00 TS 28.5825 162.131 main 2138 2133 PP____________ CP011993 28.6650 162.300 15 28.4999 161.962 2 1008 0 0 6 9
1993221N12216 1993 49 WP MM KEONI 1993-09-01 12:00:00 TS 28.8500 162.200 1008 tokyo main 2131 2131 OO____________ jtwc_cp CP011993 28.7000 162.400 15 29.0000 162.000 2 1008 0 0 0 4 17
1993221N12216 1993 49 WP MM KEONI 1993-09-01 15:00:00 TS 28.9312 162.254 main 2140 2140 PP____________ CP011993 28.7500 162.508 15 29.1125 162.000 2 1008 0 0 1 61
1993221N12216 1993 49 WP MM KEONI 1993-09-01 18:00:00 TS 28.9000 162.300 1008 tokyo main 2140 2140 OO____________ jtwc_cp CP011993 28.8000 162.600 15 29.0000 162.000 2 1008 0 0 0 1 159
1993221N12216 1993 49 WP MM KEONI 1993-09-01 21:00:00 TS 28.8037 162.310 main 2145 2145 PP____________ CP011993 28.8575 162.658 15 28.7499 161.962 2 1008 0 0 2 167
1993221N12216 1993 49 WP MM KEONI 1993-09-02 00:00:00 TS 28.7000 162.350 1008 tokyo main 2159 2159 OO____________ jtwc_cp CP011993 28.9000 162.700 15 28.5000 162.000 2 1008 0 0 0 2 131
1993221N12216 1993 49 WP MM KEONI 1993-09-02 03:00:00 TS 28.6626 162.496 main 2168 2168 PP____________ CP011993 28.9000 162.743 15 28.4252 162.250 2 1009 0 0 3 90
1993221N12216 1993 49 WP MM KEONI 1993-09-02 06:00:00 TS 28.7000 162.650 1010 tokyo main 2185 2176 OO____________ jtwc_cp CP011993 28.9000 162.800 15 28.5000 162.500 2 1010 0 0 0 3 44
1993221N12216 1993 49 WP MM KEONI 1993-09-02 09:00:00 TS 28.8499 162.704 main 2180 2169 PP____________ CP011993 28.9499 162.870 15 28.7499 162.538 2 1011 0 0 3 16
1993221N12216 1993 49 WP MM KEONI 1993-09-02 12:00:00 TS 29.0000 162.750 1012 tokyo main 2173 2173 OO____________ jtwc_cp CP011993 29.0000 163.000 15 29.0000 162.500 2 1012 0 0 0 2 35
1993221N12216 1993 49 WP MM KEONI 1993-09-02 15:00:00 TS 29.0187 162.838 main 2173 2173 PP____________ CP011993 29.0000 163.213 15 29.0374 162.462 2 1012 0 0 3 90
1993221N12216 1993 49 WP MM KEONI 1993-09-02 18:00:00 TS 29.0000 163.071 1012 tokyo main 2187 2187 OO____________ jtwc_cp CP011993 29.0000 163.500 15 29.0000 162.500 2 1012 0 0 0 5 89
1993221N12216 1993 49 WP MM KEONI 1993-09-02 21:00:00 TS 29.0242 163.452 main 2206 2206 PP____________ CP011993 29.0425 163.827 15 28.9877 162.700 2 1012 0 0 8 84
1993221N12216 1993 49 WP MM KEONI 1993-09-03 00:00:00 TS 29.0800 163.960 1012 tokyo main 2220 2220 OO____________ jtwc_cp CP011993 29.1000 164.200 15 29.0000 163.000 2 1012 0 0 0 10 83
1993221N12216 1993 49 WP MM KEONI 1993-09-03 03:00:00 NR 29.1499 164.593 main 2250 2241 P_____________ CP011993 29.1499 164.593 15 2 0 0 9 82
1993221N12216 1993 49 WP MM KEONI 1993-09-03 06:00:00 NR 29.2000 165.000 main 2261 2261 O_____________ jtwc_cp CP011993 29.2000 165.000 15 7 82
1993221N12216 1993 49 WP MM KEONI 1993-09-03 09:00:00 NR 29.2499 165.400 main 2282 2272 P_____________ CP011993 29.2499 165.400 15 7 82
1993221N12216 1993 49 WP MM KEONI 1993-09-03 12:00:00 NR 29.3000 165.800 main 2293 2293 O_____________ jtwc_cp CP011993 29.3000 165.800 15 7 82
1993221N12216 1993 49 WP MM KEONI 1993-09-03 15:00:00 NR 29.3499 166.200 main 2315 2306 P_____________ CP011993 29.3499 166.200 15 7 82
1993221N12216 1993 49 WP MM KEONI 1993-09-03 18:00:00 NR 29.4000 166.600 main 2327 2327 O_____________ jtwc_cp CP011993 29.4000 166.600 15 7 82
1993221N12216 1993 49 WP MM KEONI 1993-09-03 21:00:00 NR 29.4499 167.000 main 2348 2339 P_____________ CP011993 29.4499 167.000 15 7 82
1993221N12216 1993 49 WP MM KEONI 1993-09-04 00:00:00 NR 29.5000 167.400 main 2360 2360 O_____________ jtwc_cp CP011993 29.5000 167.400 15 7 82
1993221N12216 1993 49 WP MM KEONI 1993-09-04 03:00:00 NR 29.5502 167.800 main 2373 2373 P_____________ CP011993 29.5502 167.800 15 7 82
1993221N12216 1993 49 WP MM KEONI 1993-09-04 06:00:00 NR 29.6000 168.200 main 2395 O_____________ jtwc_cp CP011993 29.6000 168.200 15 7 82

About IBTrACS Database

This database is a web-friendly format of International Best Track Archive for Climate Stewardship (IBTrACS), a global best track data archive curated by NOAA dating back to 1842.

Updated: 2021-12-03